createdAt,value
2018-05-02T00:01:35.374Z,6.07
2018-05-02T00:04:02.841Z,6.07
2018-05-02T00:06:30.286Z,5.93
2018-05-02T00:08:57.757Z,5.73
2018-05-02T00:11:25.207Z,6.07
2018-05-02T00:13:52.694Z,5.47
2018-05-02T00:16:20.141Z,5.00
2018-05-02T00:18:47.618Z,5.30
2018-05-02T00:21:15.073Z,6.40
2018-05-02T00:23:42.550Z,5.70
2018-05-02T00:26:09.996Z,5.80
2018-05-02T00:28:37.481Z,5.60
2018-05-02T00:31:04.929Z,5.73
2018-05-02T00:33:32.405Z,5.87
2018-05-02T00:35:59.854Z,5.80
2018-05-02T00:38:27.336Z,5.90
2018-05-02T00:40:54.800Z,5.80
2018-05-02T00:43:22.293Z,6.37
2018-05-02T00:45:49.749Z,5.77
2018-05-02T00:48:17.247Z,5.57
2018-05-02T00:50:44.698Z,5.43
2018-05-02T00:53:12.180Z,5.83
2018-05-02T00:55:39.645Z,5.47
2018-05-02T00:58:07.119Z,5.70
2018-05-02T01:00:34.573Z,6.00
2018-05-02T01:03:02.045Z,5.37
2018-05-02T01:05:29.507Z,5.83
2018-05-02T01:07:56.993Z,5.70
2018-05-02T01:10:24.444Z,5.57
2018-05-02T01:12:51.926Z,6.17
2018-05-02T01:15:19.385Z,5.40
2018-05-02T01:17:46.858Z,6.17
2018-05-02T01:20:14.309Z,5.90
2018-05-02T01:22:41.794Z,6.27
2018-05-02T01:25:09.242Z,6.37
2018-05-02T01:27:36.704Z,6.27
2018-05-02T01:30:04.183Z,6.20
2018-05-02T01:32:31.638Z,6.83
2018-05-02T01:34:59.118Z,6.67
2018-05-02T01:37:26.570Z,6.60
2018-05-02T01:39:54.041Z,6.20
2018-05-02T01:42:21.563Z,6.90
2018-05-02T01:44:48.991Z,6.73
2018-05-02T01:47:16.445Z,7.33
2018-05-02T01:49:43.917Z,7.17
2018-05-02T01:52:11.361Z,7.10
2018-05-02T01:54:38.838Z,6.97
2018-05-02T01:57:06.285Z,6.53
2018-05-02T01:59:33.763Z,6.00
2018-05-02T02:02:01.225Z,6.00
2018-05-02T02:04:28.710Z,6.13
2018-05-02T02:06:56.164Z,6.33
2018-05-02T02:09:23.658Z,5.97
2018-05-02T02:11:51.114Z,5.87
2018-05-02T02:14:18.594Z,5.97
2018-05-02T02:16:46.050Z,5.40
2018-05-02T02:19:13.540Z,5.90
2018-05-02T02:21:40.994Z,5.87
2018-05-02T02:24:08.475Z,5.63
2018-05-02T02:26:35.934Z,5.80
2018-05-02T02:29:03.406Z,6.00
2018-05-02T02:31:30.861Z,6.30
2018-05-02T02:33:58.460Z,5.63
2018-05-02T02:36:25.812Z,5.63
2018-05-02T02:38:53.290Z,5.40
2018-05-02T02:41:20.744Z,6.40
2018-05-02T02:43:48.229Z,6.83
2018-05-02T02:46:15.710Z,6.63
2018-05-02T02:48:43.186Z,6.80
2018-05-02T02:51:10.640Z,7.53
2018-05-02T02:53:38.113Z,6.83
2018-05-02T02:56:05.561Z,6.77
2018-05-02T02:58:33.068Z,7.50
2018-05-02T03:01:00.522Z,7.43
2018-05-02T03:03:27.969Z,6.83
2018-05-02T03:05:55.450Z,6.87
2018-05-02T03:08:22.907Z,7.67
2018-05-02T03:10:50.397Z,7.40
2018-05-02T03:13:17.845Z,7.23
2018-05-02T03:15:45.317Z,7.27
2018-05-02T03:18:12.765Z,7.50
2018-05-02T03:20:40.237Z,8.20
2018-05-02T03:23:07.692Z,7.53
2018-05-02T03:25:35.164Z,7.90
2018-05-02T03:28:02.610Z,7.27
2018-05-02T03:30:30.093Z,7.27
2018-05-02T03:32:57.537Z,7.17
2018-05-02T03:35:25.012Z,7.53
2018-05-02T03:37:52.471Z,7.47
2018-05-02T03:40:19.954Z,7.70
2018-05-02T03:42:47.410Z,7.67
2018-05-02T03:45:14.886Z,8.00
2018-05-02T03:47:42.341Z,7.50
2018-05-02T03:50:09.843Z,7.33
2018-05-02T03:52:37.306Z,7.67
2018-05-02T03:55:04.777Z,7.23
2018-05-02T03:57:32.226Z,6.60
2018-05-02T04:00:11.718Z,6.67
2018-05-02T04:02:50.930Z,7.17
2018-05-02T04:05:30.107Z,6.50
2018-05-02T04:07:57.562Z,6.63
2018-05-02T04:10:25.034Z,6.73
2018-05-02T04:12:52.477Z,7.03
2018-05-02T04:15:19.957Z,6.73
2018-05-02T04:17:47.413Z,7.60
2018-05-02T04:20:14.898Z,6.57
2018-05-02T04:22:42.345Z,6.83
2018-05-02T04:25:09.846Z,6.30
2018-05-02T04:27:37.302Z,5.90
2018-05-02T04:30:04.786Z,6.30
2018-05-02T04:32:32.233Z,5.43
2018-05-02T04:34:59.714Z,6.33
2018-05-02T04:37:27.169Z,5.23
2018-05-02T04:39:54.653Z,5.37
2018-05-02T04:42:22.115Z,5.70
2018-05-02T04:44:49.585Z,5.47
2018-05-02T04:47:17.033Z,6.00
2018-05-02T04:49:44.510Z,6.63
2018-05-02T04:55:17.432Z,6.23
2018-05-02T04:57:44.822Z,6.07
2018-05-02T05:00:12.299Z,6.27
2018-05-02T05:02:39.762Z,5.83
2018-05-02T05:05:07.244Z,6.07
2018-05-02T05:07:34.700Z,6.00
2018-05-02T05:10:02.175Z,6.23
2018-05-02T05:12:29.632Z,6.63
2018-05-02T05:14:57.106Z,6.73
2018-05-02T05:17:24.606Z,7.33
2018-05-02T05:19:52.098Z,7.40
2018-05-02T05:22:19.550Z,7.00
2018-05-02T05:24:47.000Z,6.30
2018-05-02T05:27:14.491Z,6.97
2018-05-02T05:29:41.945Z,7.53
2018-05-02T05:32:09.437Z,8.33
2018-05-02T05:34:36.894Z,7.57
2018-05-02T05:37:04.371Z,7.10
2018-05-02T05:39:31.821Z,6.90
2018-05-02T05:41:59.299Z,7.13
2018-05-02T05:44:26.745Z,6.40
2018-05-02T05:46:54.231Z,6.20
2018-05-02T05:49:21.687Z,6.47
2018-05-02T05:51:49.160Z,6.57
2018-05-02T05:54:16.628Z,6.40
2018-05-02T05:56:44.101Z,6.77
2018-05-02T05:59:11.554Z,6.97
2018-05-02T06:01:39.034Z,8.83
2018-05-02T06:04:06.494Z,9.23
2018-05-02T06:06:33.982Z,9.90
2018-05-02T06:09:02.285Z,9.07
2018-05-02T06:11:29.762Z,7.23
2018-05-02T06:13:57.221Z,6.60
2018-05-02T06:16:24.713Z,7.73
2018-05-02T06:18:52.252Z,7.20
2018-05-02T06:21:19.678Z,6.83
2018-05-02T06:23:47.130Z,7.57
2018-05-02T06:26:14.895Z,7.20
2018-05-02T06:28:42.338Z,8.40
2018-05-02T06:31:09.814Z,7.47
2018-05-02T06:33:37.279Z,8.07
2018-05-02T06:36:04.759Z,7.93
2018-05-02T06:38:32.209Z,7.97
2018-05-02T06:41:00.238Z,8.20
2018-05-02T06:43:27.785Z,7.93
2018-05-02T06:45:55.204Z,7.23
2018-05-02T06:48:22.659Z,7.50
2018-05-02T06:50:50.154Z,8.43
2018-05-02T06:53:17.622Z,11.60
2018-05-02T06:55:45.118Z,12.43
2018-05-02T06:58:12.582Z,12.93
2018-05-02T07:00:40.039Z,7.03
2018-05-02T07:03:07.517Z,6.80
2018-05-02T07:05:34.975Z,6.23
2018-05-02T07:08:02.454Z,5.83
2018-05-02T07:10:29.914Z,5.30
2018-05-02T07:12:57.418Z,6.17
2018-05-02T07:15:24.875Z,6.23
2018-05-02T07:17:52.357Z,5.40
2018-05-02T07:20:19.818Z,5.73
2018-05-02T07:25:20.993Z,5.90
2018-05-02T07:27:48.469Z,6.43
2018-05-02T07:30:15.933Z,5.80
2018-05-02T07:32:43.538Z,6.30
2018-05-02T07:35:10.967Z,6.40
2018-05-02T07:37:38.453Z,6.37
2018-05-02T07:40:05.922Z,6.30
2018-05-02T07:42:33.393Z,5.80
2018-05-02T07:45:00.854Z,6.23
2018-05-02T07:47:28.334Z,6.03
2018-05-02T07:49:55.789Z,5.53
2018-05-02T07:52:23.269Z,5.40
2018-05-02T07:54:50.729Z,6.27
2018-05-02T07:57:18.201Z,5.83
2018-05-02T07:59:45.665Z,5.80
2018-05-02T08:02:13.151Z,5.97
2018-05-02T08:04:40.606Z,5.57
2018-05-02T08:07:08.076Z,5.60
2018-05-02T08:09:35.566Z,6.10
2018-05-02T08:12:03.050Z,5.93
2018-05-02T08:14:30.501Z,6.27
2018-05-02T08:16:57.989Z,6.37
2018-05-02T08:19:25.442Z,5.37
2018-05-02T08:21:52.917Z,6.23
2018-05-02T08:24:20.576Z,5.17
2018-05-02T08:26:48.006Z,5.23
2018-05-02T08:29:15.470Z,5.60
2018-05-02T08:31:42.945Z,4.83
2018-05-02T08:34:10.447Z,5.63
2018-05-02T08:36:37.912Z,5.47
2018-05-02T08:39:05.388Z,4.60
2018-05-02T08:41:32.846Z,4.80
2018-05-02T08:44:00.321Z,4.70
2018-05-02T08:46:27.784Z,4.47
2018-05-02T08:48:55.308Z,4.07
2018-05-02T08:51:22.770Z,3.30
2018-05-02T08:53:50.253Z,3.80
2018-05-02T08:56:17.704Z,3.37
2018-05-02T08:58:45.193Z,3.33
2018-05-02T09:01:12.655Z,3.10
2018-05-02T09:03:40.173Z,3.00
2018-05-02T09:06:07.933Z,2.70
2018-05-02T09:08:35.482Z,3.13
2018-05-02T09:11:02.936Z,2.70
2018-05-02T09:13:30.419Z,3.10
2018-05-02T09:15:57.876Z,3.20
2018-05-02T09:18:25.348Z,3.57
2018-05-02T09:20:52.823Z,3.77
2018-05-02T09:23:20.314Z,3.40
2018-05-02T09:33:47.618Z,2.77
2018-05-02T09:36:15.118Z,2.93
2018-05-02T09:38:42.597Z,3.00
2018-05-02T09:41:10.054Z,2.93
2018-05-02T09:43:37.534Z,3.47
2018-05-02T09:46:04.987Z,3.20
2018-05-02T09:48:32.469Z,2.87
2018-05-02T09:50:59.930Z,2.50
2018-05-02T09:53:28.329Z,3.00
2018-05-02T09:55:55.794Z,3.20
2018-05-02T09:58:23.266Z,2.93
2018-05-02T10:00:50.726Z,2.57
2018-05-02T10:03:18.857Z,3.10
2018-05-02T10:05:46.313Z,3.40
2018-05-02T10:08:13.790Z,3.10
2018-05-02T10:10:41.249Z,3.83
2018-05-02T10:13:08.734Z,2.93
2018-05-02T10:15:36.200Z,2.93
2018-05-02T10:18:03.692Z,2.70
2018-05-02T10:20:31.163Z,2.80
2018-05-02T10:22:58.662Z,3.00
2018-05-02T10:25:26.120Z,2.97
2018-05-02T10:27:53.601Z,3.17
2018-05-02T10:30:21.054Z,3.13
2018-05-02T10:32:48.545Z,2.97
2018-05-02T10:35:16.034Z,3.10
2018-05-02T10:37:43.496Z,2.67
2018-05-02T10:40:10.985Z,2.77
2018-05-02T10:42:38.442Z,2.60
2018-05-02T10:45:05.921Z,3.17
2018-05-02T10:47:33.382Z,2.80
2018-05-02T10:50:00.889Z,2.70
2018-05-02T10:52:28.345Z,2.80
2018-05-02T10:54:56.671Z,2.77
2018-05-02T10:57:24.131Z,2.47
2018-05-02T10:59:51.633Z,2.73
2018-05-02T11:02:19.094Z,2.50
2018-05-02T11:04:46.582Z,3.23
2018-05-02T11:07:14.051Z,3.37
2018-05-02T11:09:41.532Z,3.37
2018-05-02T11:12:08.981Z,3.23
2018-05-02T11:14:36.457Z,3.10
2018-05-02T11:17:03.923Z,3.43
2018-05-02T11:19:31.449Z,3.10
2018-05-02T11:21:58.958Z,3.10
2018-05-02T11:24:26.399Z,3.60
2018-05-02T11:26:53.867Z,3.10
2018-05-02T11:29:21.354Z,3.20
2018-05-02T11:31:48.818Z,2.60
2018-05-02T11:34:16.293Z,2.80
2018-05-02T11:36:43.815Z,3.30
2018-05-02T11:39:11.290Z,3.20
2018-05-02T11:41:38.746Z,3.40
2018-05-02T11:44:06.230Z,2.87
2018-05-02T11:46:33.684Z,3.13
2018-05-02T11:49:01.222Z,3.40
2018-05-02T11:51:28.682Z,2.80
2018-05-02T11:53:56.167Z,3.00
2018-05-02T11:56:23.633Z,2.40
2018-05-02T11:58:51.121Z,2.60
2018-05-02T12:01:18.571Z,2.50
2018-05-02T12:03:46.045Z,2.57
2018-05-02T12:06:13.510Z,2.47
2018-05-02T12:08:40.980Z,2.60
2018-05-02T12:11:08.457Z,2.40
2018-05-02T12:13:35.905Z,2.27
2018-05-02T12:16:03.388Z,2.60
2018-05-02T12:18:30.842Z,2.37
2018-05-02T12:20:58.328Z,2.47
2018-05-02T12:23:25.813Z,2.63
2018-05-02T12:25:53.297Z,2.40
2018-05-02T12:28:20.754Z,2.17
2018-05-02T12:30:48.242Z,2.17
2018-05-02T12:33:15.703Z,1.90
2018-05-02T12:35:43.193Z,2.67
2018-05-02T12:38:11.862Z,2.30
2018-05-02T12:40:39.378Z,1.97
2018-05-02T12:43:06.828Z,1.73
2018-05-02T12:45:34.312Z,2.13
2018-05-02T12:48:01.769Z,2.23
2018-05-02T12:50:29.255Z,2.03
2018-05-02T12:52:56.717Z,2.50
2018-05-02T12:55:24.287Z,2.10
2018-05-02T12:57:52.622Z,2.37
2018-05-02T13:00:20.105Z,2.00
2018-05-02T13:02:47.569Z,2.40
2018-05-02T13:05:15.046Z,1.83
2018-05-02T13:07:42.501Z,2.07
2018-05-02T13:10:09.977Z,1.80
2018-05-02T13:12:37.438Z,2.00
2018-05-02T13:15:04.980Z,2.30
2018-05-02T13:17:32.441Z,2.10
2018-05-02T13:19:59.928Z,2.30
2018-05-02T13:22:27.383Z,1.87
2018-05-02T13:24:54.868Z,1.73
2018-05-02T13:27:22.339Z,2.10
2018-05-02T13:29:49.821Z,2.27
2018-05-02T13:32:17.282Z,1.80
2018-05-02T13:34:44.769Z,2.23
2018-05-02T13:37:12.230Z,1.90
2018-05-02T13:39:39.709Z,2.00
2018-05-02T13:42:07.168Z,2.00
2018-05-02T13:44:34.627Z,2.20
2018-05-02T13:47:02.110Z,1.73
2018-05-02T13:49:29.563Z,2.17
2018-05-02T13:51:57.068Z,1.87
2018-05-02T13:54:24.530Z,1.73
2018-05-02T13:56:52.013Z,2.07
2018-05-02T13:59:19.465Z,1.70
2018-05-02T14:01:46.971Z,2.00
2018-05-02T14:04:14.435Z,2.13
2018-05-02T14:06:41.916Z,1.83
2018-05-02T14:09:09.370Z,1.70
2018-05-02T14:11:36.851Z,2.13
2018-05-02T14:14:04.310Z,1.87
2018-05-02T14:16:31.796Z,1.80
2018-05-02T14:18:59.262Z,3.50
2018-05-02T14:21:26.746Z,1.83
2018-05-02T14:23:54.221Z,11.90
2018-05-02T14:26:21.705Z,2.40
2018-05-02T14:28:49.167Z,1.70
2018-05-02T14:31:16.650Z,2.30
2018-05-02T14:33:44.115Z,2.00
2018-05-02T14:36:11.594Z,2.07
2018-05-02T14:38:39.067Z,1.93
2018-05-02T14:41:06.553Z,2.30
2018-05-02T14:43:34.014Z,2.07
2018-05-02T14:46:01.517Z,1.90
2018-05-02T14:48:28.975Z,2.13
2018-05-02T14:50:56.488Z,2.03
2018-05-02T14:53:23.999Z,2.03
2018-05-02T14:55:51.529Z,1.67
2018-05-02T14:58:19.033Z,1.63
2018-05-02T15:00:46.554Z,2.00
2018-05-02T15:03:14.063Z,1.80
2018-05-02T15:05:41.819Z,2.23
2018-05-02T15:08:09.365Z,1.67
2018-05-02T15:10:36.902Z,2.17
2018-05-02T15:13:04.432Z,2.03
2018-05-02T15:15:31.972Z,1.60
2018-05-02T15:17:59.562Z,2.20
2018-05-02T15:20:27.014Z,1.90
2018-05-02T15:22:54.645Z,2.00
2018-05-02T15:25:22.202Z,1.80
2018-05-02T15:27:49.692Z,1.93
2018-05-02T15:30:17.293Z,1.50
2018-05-02T15:32:44.821Z,2.03
2018-05-02T15:35:12.402Z,2.00
2018-05-02T15:37:39.927Z,1.60
2018-05-02T15:40:07.413Z,1.83
2018-05-02T15:42:34.982Z,1.80
2018-05-02T15:45:02.492Z,1.70
2018-05-02T15:47:30.009Z,1.80
2018-05-02T15:49:57.601Z,1.80
2018-05-02T15:52:25.118Z,1.43
2018-05-02T15:54:52.700Z,1.87
2018-05-02T15:57:20.208Z,1.90
2018-05-02T15:59:47.680Z,1.60
2018-05-02T16:02:15.198Z,2.30
2018-05-02T16:04:42.698Z,1.60
2018-05-02T16:07:10.285Z,1.73
2018-05-02T16:09:37.806Z,1.93
2018-05-02T16:12:05.376Z,1.80
2018-05-02T16:14:32.874Z,1.77
2018-05-02T16:17:00.408Z,1.80
2018-05-02T16:19:27.907Z,1.90
2018-05-02T16:21:55.527Z,1.97
2018-05-02T16:24:23.035Z,1.43
2018-05-02T16:26:50.567Z,1.50
2018-05-02T16:29:18.066Z,1.80
2018-05-02T16:31:45.639Z,1.83
2018-05-02T16:34:13.178Z,1.80
2018-05-02T16:39:12.370Z,1.40
2018-05-02T16:44:11.542Z,2.20
2018-05-02T16:46:39.060Z,2.23
2018-05-02T16:49:06.533Z,2.97
2018-05-02T16:51:34.280Z,1.90
2018-05-02T16:54:01.871Z,2.13
2018-05-02T16:56:29.444Z,2.00
2018-05-02T16:58:57.031Z,2.27
2018-05-02T17:01:24.564Z,2.07
2018-05-02T17:03:52.102Z,2.10
2018-05-02T17:06:22.576Z,1.83
2018-05-02T17:08:50.138Z,2.87
2018-05-02T17:11:17.794Z,3.30
2018-05-02T17:13:45.218Z,3.70
2018-05-02T17:16:12.686Z,3.20
2018-05-02T17:18:40.238Z,3.63
2018-05-02T17:21:07.732Z,3.30
2018-05-02T17:23:35.466Z,2.60
2018-05-02T17:26:06.881Z,3.30
2018-05-02T17:28:34.492Z,3.60
2018-05-02T17:31:02.019Z,2.40
2018-05-02T17:33:29.570Z,2.03
2018-05-02T17:35:57.150Z,2.17
2018-05-02T17:38:24.711Z,1.90
2018-05-02T17:40:52.258Z,2.17
2018-05-02T17:43:19.733Z,1.73
2018-05-02T17:45:47.290Z,2.33
2018-05-02T17:48:14.846Z,1.87
2018-05-02T17:50:42.318Z,2.03
2018-05-02T17:53:09.857Z,1.90
2018-05-02T17:55:37.764Z,1.90
2018-05-02T17:58:05.317Z,2.07
2018-05-02T18:00:32.818Z,2.13
2018-05-02T18:03:00.386Z,2.00
2018-05-02T18:05:28.030Z,1.97
2018-05-02T18:07:55.499Z,2.03
2018-05-02T18:10:23.023Z,2.20
2018-05-02T18:12:50.501Z,2.60
2018-05-02T18:15:18.269Z,2.27
2018-05-02T18:17:45.805Z,2.23
2018-05-02T18:20:13.395Z,2.13
2018-05-02T18:22:40.926Z,2.40
2018-05-02T18:25:08.693Z,2.40
2018-05-02T18:27:36.198Z,2.50
2018-05-02T18:30:03.954Z,2.20
2018-05-02T18:32:31.466Z,2.40
2018-05-02T18:34:58.955Z,2.40
2018-05-02T18:37:26.447Z,2.30
2018-05-02T18:39:54.059Z,2.67
2018-05-02T18:42:21.586Z,2.80
2018-05-02T18:44:49.154Z,2.73
2018-05-02T18:47:16.646Z,2.70
2018-05-02T18:49:44.173Z,2.53
2018-05-02T18:52:11.642Z,2.53
2018-05-02T18:54:39.159Z,2.80
2018-05-02T18:57:07.385Z,2.77
2018-05-02T18:59:34.898Z,2.90
2018-05-02T19:02:02.367Z,3.23
2018-05-02T19:04:29.879Z,2.90
2018-05-02T19:06:57.394Z,2.67
2018-05-02T19:09:24.987Z,2.77
2018-05-02T19:11:52.503Z,3.10
2018-05-02T19:14:20.014Z,2.97
2018-05-02T19:16:47.514Z,2.80
2018-05-02T19:19:20.609Z,2.93
2018-05-02T19:21:48.522Z,2.73
2018-05-02T19:24:16.053Z,3.27
2018-05-02T19:26:43.673Z,3.23
2018-05-02T19:29:11.197Z,3.20
2018-05-02T19:31:44.310Z,3.40
2018-05-02T19:34:11.928Z,3.47
2018-05-02T19:36:39.432Z,3.07
2018-05-02T19:39:07.912Z,3.43
2018-05-02T19:41:40.893Z,3.10
2018-05-02T19:44:08.928Z,3.40
2018-05-02T19:46:36.514Z,3.40
2018-05-02T19:49:04.054Z,3.70
2018-05-02T19:51:37.110Z,3.80
2018-05-02T19:54:04.696Z,4.23
2018-05-02T19:56:32.184Z,3.60
2018-05-02T19:58:59.702Z,3.97
2018-05-02T20:01:32.693Z,3.73
2018-05-02T20:04:00.275Z,3.80
2018-05-02T20:06:27.865Z,4.13
2018-05-02T20:09:01.006Z,3.97
2018-05-02T20:11:33.990Z,4.10
2018-05-02T20:14:05.423Z,3.90
2018-05-02T20:16:32.942Z,4.10
2018-05-02T20:19:00.489Z,4.30
2018-05-02T20:21:28.014Z,3.67
2018-05-02T20:23:55.546Z,4.47
2018-05-02T20:26:23.260Z,4.10
2018-05-02T20:28:50.778Z,4.10
2018-05-02T20:31:18.949Z,4.23
2018-05-02T20:33:46.469Z,4.27
2018-05-02T20:36:14.058Z,4.13
2018-05-02T20:38:41.579Z,4.60
2018-05-02T20:41:09.290Z,4.10
2018-05-02T20:43:37.132Z,4.50
2018-05-02T20:46:04.707Z,4.47
2018-05-02T20:48:32.200Z,4.37
2018-05-02T20:50:59.783Z,4.57
2018-05-02T20:53:27.307Z,4.20
2018-05-02T20:55:54.932Z,4.80
2018-05-02T20:58:22.850Z,4.40
2018-05-02T21:00:50.404Z,4.60
2018-05-02T21:03:17.909Z,4.53
2018-05-02T21:05:45.512Z,4.60
2018-05-02T21:08:13.104Z,4.20
2018-05-02T21:10:40.757Z,4.67
2018-05-02T21:13:08.269Z,5.07
2018-05-02T21:15:35.858Z,3.97
2018-05-02T21:18:03.397Z,4.03
2018-05-02T21:20:31.011Z,3.93
2018-05-02T21:22:58.542Z,4.50
2018-05-02T21:25:26.090Z,4.80
2018-05-02T21:27:53.675Z,4.50
2018-05-02T21:30:21.242Z,4.67
2018-05-02T21:32:48.743Z,4.87
2018-05-02T21:35:16.273Z,5.00
2018-05-02T21:37:43.857Z,4.70
2018-05-02T21:40:11.394Z,4.40
2018-05-02T21:42:38.915Z,4.80
2018-05-02T21:45:06.435Z,4.93
2018-05-02T21:47:33.937Z,5.20
2018-05-02T21:50:01.689Z,5.00
2018-05-02T21:52:29.184Z,5.10
2018-05-02T21:54:56.746Z,5.23
2018-05-02T21:57:24.229Z,4.90
2018-05-02T21:59:51.987Z,5.20
2018-05-02T22:02:19.546Z,5.37
2018-05-02T22:04:47.077Z,5.03
2018-05-02T22:07:14.557Z,5.10
2018-05-02T22:09:42.267Z,6.00
2018-05-02T22:12:09.789Z,5.03
2018-05-02T22:14:37.332Z,5.13
2018-05-02T22:17:04.862Z,4.80
2018-05-02T22:19:32.389Z,5.10
2018-05-02T22:24:35.833Z,5.00
2018-05-02T22:27:03.394Z,4.70
2018-05-02T22:29:30.869Z,4.77
2018-05-02T22:31:58.424Z,4.70
2018-05-02T22:34:26.003Z,5.20
2018-05-02T22:36:53.497Z,5.27
2018-05-02T22:39:21.010Z,5.07
2018-05-02T22:41:48.566Z,4.73
2018-05-02T22:44:16.074Z,4.73
2018-05-02T22:46:43.607Z,5.00
2018-05-02T22:49:11.124Z,4.67
2018-05-02T22:51:38.631Z,4.67
2018-05-02T22:54:06.147Z,4.60
2018-05-02T22:56:33.755Z,4.70
2018-05-02T22:59:01.252Z,4.70
2018-05-02T23:01:28.844Z,4.57
2018-05-02T23:03:57.453Z,4.77
2018-05-02T23:06:24.966Z,5.47
2018-05-02T23:08:52.518Z,4.87
2018-05-02T23:11:20.109Z,4.83
2018-05-02T23:13:47.625Z,4.80
2018-05-02T23:16:15.957Z,5.07
2018-05-02T23:18:43.511Z,5.30
2018-05-02T23:21:11.030Z,5.50
2018-05-02T23:23:38.539Z,5.30
2018-05-02T23:26:06.167Z,5.13
2018-05-02T23:28:33.662Z,4.97
2018-05-02T23:31:01.192Z,5.00
2018-05-02T23:33:28.710Z,5.03
2018-05-02T23:35:56.266Z,5.03
2018-05-02T23:38:23.757Z,5.40
2018-05-02T23:40:51.298Z,5.40
2018-05-02T23:43:18.825Z,5.30
2018-05-02T23:45:46.364Z,5.40
2018-05-02T23:48:13.862Z,5.30
2018-05-02T23:50:41.404Z,5.33
2018-05-02T23:53:08.897Z,5.43
2018-05-02T23:55:36.414Z,5.23
2018-05-02T23:58:03.890Z,5.27
